MUHAKEYW

Guest
Details From MUHA - Havana Jose Marti Intl
To KEYW - Key West Intl
Flight Number -
Tags generated
Created
Modified
Stats Distance 101 nm / 187 km
Max Altitude 1,100 ft / 335 m
Waypoints 3
Social Downloads 6
Likes 0
Share VATSIM

Download

Looking for another format? Having issues loading an existing format? Contact us
Advertisement - Login to hide

Notes

Basic altitude profile: - Ascent Rate: 2500ft/min - Ascent Speed: 90kts - Cruise Altitude: 5000ft - Cruise Speed: 120kts - Descent Rate: 1500ft/min - Descent Speed: 90kts

Route

MUHA FIS KEYW

ID Type Via Altitude Latitude Longitude Leg Dist Tot Dist Heading (true) Name
O MUHA APT - 0 ft / 0 m 22.98915˚ -82.40909˚ - 0 nm - Havana Jose Marti Intl
FIS NDB - 1,100 ft / 335 m 24.54833˚ -81.78639˚ 99 nm 99 nm 20° / 20° FISH HOOK NDB
O KEYW APT - 0 ft / 0 m 24.55612˚ -81.75955˚ 1 nm 101 nm 72° / 72° Key West Intl

Altitude Profile

Advertisement - Login to hide

MUHA

Details ICAO MUHA (HAV)
Name Havana Jose Marti Intl
Region Cuba
Timezone America/Havana (UTC-5.0)
Stats Elevation 209 ft / 64 m (AMSL)
Location 22.989154° -82.409086°
Runways 1
Magnetic Variation 4.908° W

METAR

MUHA 130655Z 20002KT 9000 SCT030 16/14 Q1017

Decode

TAF

Not found

Departure Runways

ID Width Length Bearing (true) Bearing (mag) Surface Threshold Offset Overrun Length
06 148 ft / 45 m 13,133 ft / 4,003 m 54.21° 59.12° Asphalt 0 ft / 0 m 476 ft / 145 m
24 148 ft / 45 m 13,133 ft / 4,003 m 234.23° 239.14° Asphalt 0 ft / 0 m 197 ft / 60 m

KEYW

Details ICAO KEYW (EYW)
Name Key West Intl
Region United States
Timezone America/New_York (UTC-5.0)
Stats Elevation 2 ft / 1 m (AMSL)
Location 24.556124° -81.759546°
Runways 1
Magnetic Variation 5.545° W

METAR

KEYW 130653Z AUTO 33009KT 10SM FEW049 BKN065 21/14 A3000 RMK AO2 SLP157 T02110144 $

Decode

TAF

KEYW 130538Z 1306/1406 32011G17KT P6SM SCT050 FM131300 36010KT P6SM SCT035

Decode

Destination Runways

ID Width Length Bearing (true) Bearing (mag) Surface Threshold Offset Overrun Length
09 100 ft / 30 m 4,794 ft / 1,461 m 89.38° 94.92° Asphalt 151 ft / 46 m 0 ft / 0 m
27 100 ft / 30 m 4,794 ft / 1,461 m 269.39° 274.93° Asphalt 151 ft / 46 m 0 ft / 0 m

Popular Alternatives